Time,TemperatureF,DewpointF,PressureIn,WindDirection,WindDirectionDegrees,WindSpeedMPH,WindSpeedGustMPH,Humidity,HourlyPrecipIn,Conditions,Clouds,dailyrainin,SoftwareType,DateUTC
2013-09-18 00:01:00,45.1,42.6,30.35,SE,143,0.0,0.0,91,0.00,,,0.00,WeatherCatV1.15B25,2013-09-18 04:01:00,
2013-09-18 00:06:00,44.9,42.4,30.34,SE,142,0.0,0.0,91,0.00,,,0.00,WeatherCatV1.15B25,2013-09-18 04:06:00,
2013-09-18 00:11:00,44.8,42.3,30.35,SE,143,0.0,0.0,91,0.00,,,0.00,WeatherCatV1.15B25,2013-09-18 04:11:00,
2013-09-18 00:16:00,44.8,42.6,30.35,SE,143,0.0,0.0,92,0.00,,,0.00,WeatherCatV1.15B25,2013-09-18 04:16:00,
2013-09-18 00:21:00,44.7,42.5,30.35,SE,143,0.0,0.0,92,0.00,,,0.00,WeatherCatV1.15B25,2013-09-18 04:21:00,
2013-09-18 00:26:00,44.7,42.5,30.35,SE,143,0.0,0.0,92,0.00,,,0.00,WeatherCatV1.15B25,2013-09-18 04:26:00,
2013-09-18 00:31:00,44.6,42.4,30.34,SE,142,0.0,0.0,92,0.00,,,0.00,WeatherCatV1.15B25,2013-09-18 04:31:00,
2013-09-18 00:36:00,44.5,42.3,30.34,SE,142,0.0,0.0,92,0.00,,,0.00,WeatherCatV1.15B25,2013-09-18 04:36:00,
2013-09-18 00:41:00,44.4,42.2,30.34,SE,142,0.0,0.0,92,0.00,,,0.00,WeatherCatV1.15B25,2013-09-18 04:41:00,
2013-09-18 00:46:00,44.4,42.5,30.35,SE,143,0.0,0.0,93,0.00,,,0.00,WeatherCatV1.15B25,2013-09-18 04:46:00,
2013-09-18 00:51:00,44.3,42.4,30.34,SE,143,0.0,0.0,93,0.00,,,0.00,WeatherCatV1.15B25,2013-09-18 04:51:00,
2013-09-18 00:56:00,44.3,42.4,30.34,SE,143,0.0,0.0,93,0.00,,,0.00,WeatherCatV1.15B25,2013-09-18 04:56:00,
2013-09-18 01:01:00,44.3,42.4,30.34,SE,142,0.0,0.0,93,0.00,,,0.00,WeatherCatV1.15B25,2013-09-18 05:01:00,
2013-09-18 01:06:00,44.3,42.4,30.34,SE,142,0.0,0.0,93,0.00,,,0.00,WeatherCatV1.15B25,2013-09-18 05:06:00,
2013-09-18 01:11:00,44.3,42.4,30.34,SE,142,0.0,0.0,93,0.00,,,0.00,WeatherCatV1.15B25,2013-09-18 05:11:00,
2013-09-18 01:16:00,44.3,42.4,30.34,SE,143,0.0,0.0,93,0.00,,,0.00,WeatherCatV1.15B25,2013-09-18 05:16:00,
2013-09-18 01:21:00,44.3,42.4,30.34,SE,143,0.0,0.0,93,0.00,,,0.00,WeatherCatV1.15B25,2013-09-18 05:21:00,
2013-09-18 01:26:00,44.2,42.3,30.34,SE,143,0.0,0.0,93,0.00,,,0.00,WeatherCatV1.15B25,2013-09-18 05:26:00,
2013-09-18 01:31:00,44.1,42.2,30.34,SE,143,0.0,0.0,93,0.00,,,0.00,WeatherCatV1.15B25,2013-09-18 05:31:00,
2013-09-18 01:36:00,44.0,42.1,30.34,SE,143,0.0,0.0,93,0.00,,,0.00,WeatherCatV1.15B25,2013-09-18 05:36:00,
2013-09-18 01:41:00,43.9,42.0,30.34,SE,143,0.0,0.0,93,0.00,,,0.00,WeatherCatV1.15B25,2013-09-18 05:41:00,
2013-09-18 01:46:00,43.8,41.9,30.34,SE,142,0.0,0.0,93,0.00,,,0.00,WeatherCatV1.15B25,2013-09-18 05:46:00,
2013-09-18 01:51:00,43.7,41.8,30.34,SE,142,0.0,0.0,93,0.00,,,0.00,WeatherCatV1.15B25,2013-09-18 05:51:00,
2013-09-18 01:56:00,43.7,42.1,30.33,SE,143,0.0,0.0,94,0.00,,,0.00,WeatherCatV1.15B25,2013-09-18 05:56:00,
2013-09-18 02:01:00,43.7,42.1,30.33,SE,143,0.0,0.0,94,0.00,,,0.00,WeatherCatV1.15B25,2013-09-18 06:01:00,
2013-09-18 02:06:00,43.6,42.0,30.33,SE,143,0.0,0.0,94,0.00,,,0.00,WeatherCatV1.15B25,2013-09-18 06:06:00,
2013-09-18 02:11:00,43.6,42.0,30.33,SE,143,0.0,0.0,94,0.00,,,0.00,WeatherCatV1.15B25,2013-09-18 06:11:00,
2013-09-18 02:16:00,43.5,41.9,30.33,SE,143,0.0,0.0,94,0.00,,,0.00,WeatherCatV1.15B25,2013-09-18 06:16:00,
2013-09-18 02:21:00,43.5,41.9,30.33,SE,142,0.0,0.0,94,0.00,,,0.00,WeatherCatV1.15B25,2013-09-18 06:21:00,
2013-09-18 02:26:00,43.3,41.7,30.33,SE,143,0.0,0.0,94,0.00,,,0.00,WeatherCatV1.15B25,2013-09-18 06:26:00,
2013-09-18 02:31:00,43.3,41.7,30.33,SE,143,0.0,0.0,94,0.00,,,0.00,WeatherCatV1.15B25,2013-09-18 06:31:00,
2013-09-18 02:36:00,43.3,41.7,30.33,SE,143,0.0,0.0,94,0.00,,,0.00,WeatherCatV1.15B25,2013-09-18 06:36:00,
2013-09-18 02:41:00,43.2,41.6,30.33,SE,143,0.0,0.0,94,0.00,,,0.00,WeatherCatV1.15B25,2013-09-18 06:41:00,
2013-09-18 02:46:00,43.1,41.5,30.33,SE,143,0.0,0.0,94,0.00,,,0.00,WeatherCatV1.15B25,2013-09-18 06:46:00,
2013-09-18 02:51:00,43.1,41.5,30.33,SE,143,0.0,0.0,94,0.00,,,0.00,WeatherCatV1.15B25,2013-09-18 06:51:00,
2013-09-18 02:56:00,43.0,41.4,30.33,SE,143,0.0,0.0,94,0.00,,,0.00,WeatherCatV1.15B25,2013-09-18 06:56:00,
2013-09-18 03:01:00,43.1,41.8,30.33,SE,143,0.0,0.0,95,0.00,,,0.00,WeatherCatV1.15B25,2013-09-18 07:01:00,
2013-09-18 03:06:00,43.0,41.7,30.33,SE,143,0.0,0.0,95,0.00,,,0.00,WeatherCatV1.15B25,2013-09-18 07:06:00,
2013-09-18 03:11:00,42.9,41.6,30.33,SE,142,0.0,0.0,95,0.00,,,0.00,WeatherCatV1.15B25,2013-09-18 07:11:00,
2013-09-18 03:16:00,42.8,41.5,30.33,SE,143,0.0,0.0,95,0.00,,,0.00,WeatherCatV1.15B25,2013-09-18 07:16:00,
2013-09-18 03:21:00,42.8,41.5,30.33,SE,143,0.0,0.0,95,0.00,,,0.00,WeatherCatV1.15B25,2013-09-18 07:21:00,
2013-09-18 03:26:00,42.7,41.4,30.33,SE,142,0.0,0.0,95,0.00,,,0.00,WeatherCatV1.15B25,2013-09-18 07:26:00,
2013-09-18 03:31:00,42.6,41.3,30.33,SE,143,0.0,0.0,95,0.00,,,0.00,WeatherCatV1.15B25,2013-09-18 07:31:00,
2013-09-18 03:36:00,42.6,41.3,30.33,SE,143,0.0,0.0,95,0.00,,,0.00,WeatherCatV1.15B25,2013-09-18 07:36:00,
2013-09-18 03:41:00,42.5,41.2,30.32,SE,143,0.0,0.0,95,0.00,,,0.00,WeatherCatV1.15B25,2013-09-18 07:41:00,
2013-09-18 03:46:00,42.4,41.1,30.32,SE,142,0.0,0.0,95,0.00,,,0.00,WeatherCatV1.15B25,2013-09-18 07:46:00,
2013-09-18 03:51:00,42.4,41.1,30.32,SE,143,0.0,0.0,95,0.00,,,0.00,WeatherCatV1.15B25,2013-09-18 07:51:00,
2013-09-18 03:56:00,42.3,41.0,30.32,SE,142,0.0,0.0,95,0.00,,,0.00,WeatherCatV1.15B25,2013-09-18 07:56:00,
2013-09-18 04:01:00,42.2,40.9,30.32,SE,143,0.0,0.0,95,0.00,,,0.00,WeatherCatV1.15B25,2013-09-18 08:01:00,
2013-09-18 04:06:00,42.1,40.8,30.32,SE,142,0.0,0.0,95,0.00,,,0.00,WeatherCatV1.15B25,2013-09-18 08:06:00,
2013-09-18 04:11:00,42.0,40.7,30.32,SE,142,0.0,0.0,95,0.00,,,0.00,WeatherCatV1.15B25,2013-09-18 08:11:00,
2013-09-18 04:16:00,41.9,40.6,30.32,SE,143,0.0,0.0,95,0.00,,,0.00,WeatherCatV1.15B25,2013-09-18 08:16:00,
2013-09-18 04:21:00,41.7,40.4,30.32,SE,142,0.0,0.0,95,0.00,,,0.00,WeatherCatV1.15B25,2013-09-18 08:21:00,
2013-09-18 04:26:00,41.8,40.5,30.32,SE,142,0.0,0.0,95,0.00,,,0.00,WeatherCatV1.15B25,2013-09-18 08:26:00,
2013-09-18 04:31:00,41.8,40.5,30.32,SE,142,0.0,0.0,95,0.00,,,0.00,WeatherCatV1.15B25,2013-09-18 08:31:00,
2013-09-18 04:36:00,41.8,40.5,30.32,SE,142,0.0,0.0,95,0.00,,,0.00,WeatherCatV1.15B25,2013-09-18 08:36:00,
2013-09-18 04:41:00,41.9,40.6,30.32,SE,142,0.0,0.0,95,0.00,,,0.00,WeatherCatV1.15B25,2013-09-18 08:41:00,
2013-09-18 04:46:00,41.8,40.5,30.32,SE,142,0.0,0.0,95,0.00,,,0.00,WeatherCatV1.15B25,2013-09-18 08:46:00,
2013-09-18 04:51:00,41.7,40.4,30.32,SE,142,0.0,0.0,95,0.00,,,0.00,WeatherCatV1.15B25,2013-09-18 08:51:00,
2013-09-18 04:56:00,41.7,40.4,30.32,SE,142,0.0,0.0,95,0.00,,,0.00,WeatherCatV1.15B25,2013-09-18 08:56:00,
2013-09-18 05:01:00,41.6,40.3,30.32,SE,143,0.0,0.0,95,0.00,,,0.00,WeatherCatV1.15B25,2013-09-18 09:01:00,
2013-09-18 05:06:00,41.5,40.2,30.32,SE,143,0.0,0.0,95,0.00,,,0.00,WeatherCatV1.15B25,2013-09-18 09:06:00,
2013-09-18 05:11:00,41.5,40.4,30.32,SE,143,0.0,0.0,96,0.00,,,0.00,WeatherCatV1.15B25,2013-09-18 09:11:00,
2013-09-18 05:16:00,41.6,40.5,30.32,SE,143,0.0,0.0,96,0.00,,,0.00,WeatherCatV1.15B25,2013-09-18 09:16:00,
2013-09-18 05:21:00,41.7,40.6,30.32,SE,142,0.0,0.0,96,0.00,,,0.00,WeatherCatV1.15B25,2013-09-18 09:21:00,
2013-09-18 05:26:00,41.7,40.6,30.32,SE,142,0.0,0.0,96,0.00,,,0.00,WeatherCatV1.15B25,2013-09-18 09:26:00,
2013-09-18 05:31:00,41.6,40.5,30.32,SE,143,0.0,0.0,96,0.00,,,0.00,WeatherCatV1.15B25,2013-09-18 09:31:00,
2013-09-18 05:36:00,41.6,40.5,30.32,SE,142,0.0,0.0,96,0.00,,,0.00,WeatherCatV1.15B25,2013-09-18 09:36:00,
2013-09-18 05:41:00,41.4,40.3,30.32,SE,143,0.0,0.0,96,0.00,,,0.00,WeatherCatV1.15B25,2013-09-18 09:41:00,
2013-09-18 05:46:00,41.4,40.3,30.32,SE,142,0.0,0.0,96,0.00,,,0.00,WeatherCatV1.15B25,2013-09-18 09:46:00,
2013-09-18 05:51:00,41.4,40.3,30.32,SE,143,0.0,0.0,96,0.00,,,0.00,WeatherCatV1.15B25,2013-09-18 09:51:00,
2013-09-18 05:56:00,41.5,40.4,30.32,SE,143,0.0,0.0,96,0.00,,,0.00,WeatherCatV1.15B25,2013-09-18 09:56:00,
2013-09-18 06:01:00,41.3,40.2,30.32,SE,142,0.0,0.0,96,0.00,,,0.00,WeatherCatV1.15B25,2013-09-18 10:01:00,
2013-09-18 06:06:00,41.3,40.2,30.33,SE,142,0.0,0.0,96,0.00,,,0.00,WeatherCatV1.15B25,2013-09-18 10:06:00,
2013-09-18 06:11:00,41.2,40.1,30.33,SE,142,0.0,0.0,96,0.00,,,0.00,WeatherCatV1.15B25,2013-09-18 10:11:00,
2013-09-18 06:16:00,41.1,40.0,30.33,SE,142,0.0,0.0,96,0.00,,,0.00,WeatherCatV1.15B25,2013-09-18 10:16:00,
2013-09-18 06:21:00,41.1,40.0,30.33,SE,143,0.0,0.0,96,0.00,,,0.00,WeatherCatV1.15B25,2013-09-18 10:21:00,
2013-09-18 06:26:00,41.0,39.9,30.33,SE,143,0.0,0.0,96,0.00,,,0.00,WeatherCatV1.15B25,2013-09-18 10:26:00,
2013-09-18 06:31:00,40.9,39.8,30.33,SE,142,0.0,0.0,96,0.00,,,0.00,WeatherCatV1.15B25,2013-09-18 10:31:00,
2013-09-18 06:36:00,40.9,39.8,30.33,SE,143,0.0,0.0,96,0.00,,,0.00,WeatherCatV1.15B25,2013-09-18 10:36:00,
2013-09-18 06:41:00,40.9,39.8,30.33,SE,143,0.0,0.0,96,0.00,,,0.00,WeatherCatV1.15B25,2013-09-18 10:41:00,
2013-09-18 06:46:00,41.0,39.9,30.33,SE,143,0.0,0.0,96,0.00,,,0.00,WeatherCatV1.15B25,2013-09-18 10:46:00,
2013-09-18 06:51:00,41.0,39.9,30.33,SE,142,0.0,0.0,96,0.00,,,0.00,WeatherCatV1.15B25,2013-09-18 10:51:00,
2013-09-18 06:56:00,41.1,40.0,30.33,SE,143,0.0,0.0,96,0.00,,,0.00,WeatherCatV1.15B25,2013-09-18 10:56:00,
2013-09-18 07:01:00,41.2,40.1,30.33,SE,143,0.0,0.0,96,0.00,,,0.00,WeatherCatV1.15B25,2013-09-18 11:01:00,
2013-09-18 07:06:00,41.4,40.6,30.33,SE,143,0.0,0.0,97,0.00,,,0.00,WeatherCatV1.15B25,2013-09-18 11:06:00,
2013-09-18 07:11:00,41.7,40.9,30.33,SE,142,0.0,0.0,97,0.00,,,0.00,WeatherCatV1.15B25,2013-09-18 11:11:00,
2013-09-18 07:16:00,42.0,41.2,30.33,SE,142,0.0,0.0,97,0.00,,,0.00,WeatherCatV1.15B25,2013-09-18 11:16:00,
2013-09-18 07:21:00,42.4,41.6,30.33,SE,143,0.0,0.0,97,0.00,,,0.00,WeatherCatV1.15B25,2013-09-18 11:21:00,
2013-09-18 07:26:00,42.9,42.1,30.33,SE,143,0.0,0.0,97,0.00,,,0.00,WeatherCatV1.15B25,2013-09-18 11:26:00,
2013-09-18 07:31:00,43.5,42.7,30.33,SE,142,0.0,0.0,97,0.00,,,0.00,WeatherCatV1.15B25,2013-09-18 11:31:00,
2013-09-18 07:36:00,44.2,43.4,30.33,SE,142,0.0,0.0,97,0.00,,,0.00,WeatherCatV1.15B25,2013-09-18 11:36:00,
2013-09-18 07:41:00,44.9,44.1,30.33,SE,143,0.0,0.0,97,0.00,,,0.00,WeatherCatV1.15B25,2013-09-18 11:41:00,
2013-09-18 07:46:00,45.6,44.8,30.33,SE,142,0.0,0.0,97,0.00,,,0.00,WeatherCatV1.15B25,2013-09-18 11:46:00,
2013-09-18 07:51:00,46.2,45.4,30.33,SE,143,0.0,0.0,97,0.00,,,0.00,WeatherCatV1.15B25,2013-09-18 11:51:00,
2013-09-18 07:56:00,46.8,46.0,30.33,SSE,167,0.0,0.0,97,0.00,,,0.00,WeatherCatV1.15B25,2013-09-18 11:56:00,
2013-09-18 08:01:00,47.5,46.7,30.33,SSE,168,0.0,0.0,97,0.00,,,0.00,WeatherCatV1.15B25,2013-09-18 12:01:00,
2013-09-18 08:06:00,48.1,47.3,30.33,SSE,167,0.0,0.0,97,0.00,,,0.00,WeatherCatV1.15B25,2013-09-18 12:06:00,
2013-09-18 08:11:00,48.9,47.5,30.33,SSE,167,0.0,0.0,95,0.00,,,0.00,WeatherCatV1.15B25,2013-09-18 12:11:00,
2013-09-18 08:16:00,49.7,47.5,30.33,SSE,167,0.0,0.0,92,0.00,,,0.00,WeatherCatV1.15B25,2013-09-18 12:16:00,
2013-09-18 08:21:00,50.7,47.0,30.33,SSE,168,0.0,0.0,87,0.00,,,0.00,WeatherCatV1.15B25,2013-09-18 12:21:00,
2013-09-18 08:26:00,51.7,47.0,30.33,SSW,202,0.0,0.0,84,0.00,,,0.00,WeatherCatV1.15B25,2013-09-18 12:26:00,
2013-09-18 08:31:00,52.5,47.2,30.33,SSW,198,1.0,3.0,82,0.00,,,0.00,WeatherCatV1.15B25,2013-09-18 12:31:00,
2013-09-18 08:36:00,53.2,47.5,30.33,SW,219,0.0,0.0,81,0.00,,,0.00,WeatherCatV1.15B25,2013-09-18 12:36:00,
2013-09-18 08:41:00,53.8,47.1,30.32,East,82,0.0,3.0,78,0.00,,,0.00,WeatherCatV1.15B25,2013-09-18 12:41:00,
2013-09-18 08:46:00,54.4,48.0,30.33,East,94,0.0,1.0,79,0.00,,,0.00,WeatherCatV1.15B25,2013-09-18 12:46:00,
2013-09-18 08:51:00,55.0,47.9,30.32,East,98,0.0,1.0,77,0.00,,,0.00,WeatherCatV1.15B25,2013-09-18 12:51:00,
2013-09-18 08:56:00,55.5,48.1,30.32,East,86,1.0,2.0,76,0.00,,,0.00,WeatherCatV1.15B25,2013-09-18 12:56:00,
2013-09-18 09:01:00,56.2,48.4,30.32,East,93,0.0,0.0,75,0.00,,,0.00,WeatherCatV1.15B25,2013-09-18 13:01:00,
2013-09-18 09:06:00,56.8,48.2,30.32,East,87,0.0,1.0,73,0.00,,,0.00,WeatherCatV1.15B25,2013-09-18 13:06:00,
2013-09-18 09:11:00,57.4,48.4,30.32,SSW,198,0.0,0.0,72,0.00,,,0.00,WeatherCatV1.15B25,2013-09-18 13:11:00,
2013-09-18 09:16:00,57.9,48.6,30.32,South,177,0.0,1.0,71,0.00,,,0.00,WeatherCatV1.15B25,2013-09-18 13:16:00,
2013-09-18 09:21:00,58.5,48.4,30.32,WSW,249,0.0,1.0,69,0.00,,,0.00,WeatherCatV1.15B25,2013-09-18 13:21:00,
2013-09-18 09:26:00,59.1,47.8,30.32,West,260,2.0,3.0,66,0.00,,,0.00,WeatherCatV1.15B25,2013-09-18 13:26:00,
2013-09-18 09:31:00,59.4,48.0,30.32,South,177,0.0,1.0,66,0.00,,,0.00,WeatherCatV1.15B25,2013-09-18 13:31:00,
2013-09-18 09:36:00,59.9,48.5,30.32,SSW,207,0.0,1.0,66,0.00,,,0.00,WeatherCatV1.15B25,2013-09-18 13:36:00,
2013-09-18 09:41:00,60.4,48.2,30.32,SSW,212,1.0,2.0,64,0.00,,,0.00,WeatherCatV1.15B25,2013-09-18 13:41:00,
2013-09-18 09:46:00,60.8,49.0,30.31,SSE,157,0.0,2.0,65,0.00,,,0.00,WeatherCatV1.15B25,2013-09-18 13:46:00,
2013-09-18 09:51:00,61.6,50.1,30.31,SSE,156,0.0,0.0,66,0.00,,,0.00,WeatherCatV1.15B25,2013-09-18 13:51:00,
2013-09-18 09:56:00,62.6,49.4,30.31,North,1,0.0,1.0,62,0.00,,,0.00,WeatherCatV1.15B25,2013-09-18 13:56:00,
2013-09-18 10:01:00,63.3,47.8,30.31,SW,217,1.0,1.0,57,0.00,,,0.00,WeatherCatV1.15B25,2013-09-18 14:01:00,
2013-09-18 10:06:00,63.8,47.3,30.31,East,99,2.0,5.0,55,0.00,,,0.00,WeatherCatV1.15B25,2013-09-18 14:06:00,
2013-09-18 10:11:00,64.4,47.4,30.31,SSW,206,2.0,5.0,54,0.00,,,0.00,WeatherCatV1.15B25,2013-09-18 14:11:00,
2013-09-18 10:16:00,64.8,46.8,30.30,SSE,166,0.0,3.0,52,0.00,,,0.00,WeatherCatV1.15B25,2013-09-18 14:16:00,
2013-09-18 10:21:00,65.4,46.8,30.30,ESE,108,1.0,3.0,51,0.00,,,0.00,WeatherCatV1.15B25,2013-09-18 14:21:00,
2013-09-18 10:26:00,65.9,47.3,30.30,East,88,1.0,2.0,51,0.00,,,0.00,WeatherCatV1.15B25,2013-09-18 14:26:00,
2013-09-18 10:31:00,66.5,46.7,30.30,SW,235,1.0,2.0,49,0.00,,,0.00,WeatherCatV1.15B25,2013-09-18 14:31:00,
2013-09-18 10:36:00,66.9,46.0,30.30,South,174,1.0,4.0,47,0.00,,,0.00,WeatherCatV1.15B25,2013-09-18 14:36:00,
2013-09-18 10:41:00,67.4,47.0,30.30,SW,218,1.0,1.0,48,0.00,,,0.00,WeatherCatV1.15B25,2013-09-18 14:41:00,
2013-09-18 10:46:00,68.2,46.6,30.29,SE,144,3.0,3.0,46,0.00,,,0.00,WeatherCatV1.15B25,2013-09-18 14:46:00,
2013-09-18 10:51:00,68.3,46.7,30.29,SSE,166,2.0,3.0,46,0.00,,,0.00,WeatherCatV1.15B25,2013-09-18 14:51:00,
2013-09-18 10:56:00,68.7,44.7,30.29,South,176,2.0,4.0,42,0.00,,,0.00,WeatherCatV1.15B25,2013-09-18 14:56:00,
2013-09-18 11:01:00,68.9,44.9,30.29,SW,236,2.0,3.0,42,0.00,,,0.00,WeatherCatV1.15B25,2013-09-18 15:01:00,
2013-09-18 11:06:00,69.1,45.0,30.29,SSW,195,3.0,3.0,42,0.00,,,0.00,WeatherCatV1.15B25,2013-09-18 15:06:00,
2013-09-18 11:11:00,69.4,45.3,30.29,SW,226,1.0,1.0,42,0.00,,,0.00,WeatherCatV1.15B25,2013-09-18 15:11:00,
2013-09-18 11:16:00,70.0,47.1,30.29,NNE,18,0.0,2.0,44,0.00,,,0.00,WeatherCatV1.15B25,2013-09-18 15:16:00,
2013-09-18 11:21:00,70.4,46.8,30.29,SE,146,0.0,2.0,43,0.00,,,0.00,WeatherCatV1.15B25,2013-09-18 15:21:00,
2013-09-18 11:26:00,70.6,46.4,30.29,SSE,165,1.0,1.0,42,0.00,,,0.00,WeatherCatV1.15B25,2013-09-18 15:26:00,
2013-09-18 11:31:00,70.9,46.7,30.29,SSE,158,0.0,1.0,42,0.00,,,0.00,WeatherCatV1.15B25,2013-09-18 15:31:00,
2013-09-18 11:36:00,71.1,46.8,30.28,South,174,0.0,2.0,42,0.00,,,0.00,WeatherCatV1.15B25,2013-09-18 15:36:00,
2013-09-18 11:41:00,71.1,47.5,30.28,East,97,0.0,1.0,43,0.00,,,0.00,WeatherCatV1.15B25,2013-09-18 15:41:00,
2013-09-18 11:46:00,70.7,45.8,30.28,SE,136,1.0,3.0,41,0.00,,,0.00,WeatherCatV1.15B25,2013-09-18 15:46:00,
2013-09-18 11:51:00,70.5,46.3,30.28,SSW,193,2.0,5.0,42,0.00,,,0.00,WeatherCatV1.15B25,2013-09-18 15:51:00,
2013-09-18 11:56:00,71.0,46.7,30.28,SSW,211,0.0,1.0,42,0.00,,,0.00,WeatherCatV1.15B25,2013-09-18 15:56:00,
2013-09-18 12:01:00,71.2,47.5,30.27,SSW,207,0.0,1.0,43,0.00,,,0.00,WeatherCatV1.15B25,2013-09-18 16:01:00,
2013-09-18 12:06:00,71.2,45.6,30.27,SSW,211,0.0,2.0,40,0.00,,,0.00,WeatherCatV1.15B25,2013-09-18 16:06:00,
2013-09-18 12:11:00,71.5,45.9,30.27,South,186,2.0,4.0,40,0.00,,,0.00,WeatherCatV1.15B25,2013-09-18 16:11:00,
2013-09-18 12:16:00,71.5,45.9,30.27,SSE,166,0.0,2.0,40,0.00,,,0.00,WeatherCatV1.15B25,2013-09-18 16:16:00,
2013-09-18 12:21:00,71.9,46.3,30.26,West,280,0.0,1.0,40,0.00,,,0.00,WeatherCatV1.15B25,2013-09-18 16:21:00,
2013-09-18 12:26:00,72.5,46.1,30.26,East,84,2.0,3.0,39,0.00,,,0.00,WeatherCatV1.15B25,2013-09-18 16:26:00,
2013-09-18 12:31:00,72.5,44.7,30.26,SW,226,0.0,3.0,37,0.00,,,0.00,WeatherCatV1.15B25,2013-09-18 16:31:00,
2013-09-18 12:36:00,73.0,46.6,30.26,ENE,76,2.0,2.0,39,0.00,,,0.00,WeatherCatV1.15B25,2013-09-18 16:36:00,
2013-09-18 12:41:00,73.3,45.4,30.26,SW,228,2.0,3.0,37,0.00,,,0.00,WeatherCatV1.15B25,2013-09-18 16:41:00,
2013-09-18 12:46:00,73.5,45.6,30.25,NW,323,0.0,3.0,37,0.00,,,0.00,WeatherCatV1.15B25,2013-09-18 16:46:00,
2013-09-18 12:51:00,73.1,46.0,30.25,East,88,1.0,3.0,38,0.00,,,0.00,WeatherCatV1.15B25,2013-09-18 16:51:00,
2013-09-18 12:56:00,73.1,47.3,30.25,SSE,160,0.0,1.0,40,0.00,,,0.00,WeatherCatV1.15B25,2013-09-18 16:56:00,
2013-09-18 13:01:00,73.3,45.4,30.25,ENE,68,1.0,2.0,37,0.00,,,0.00,WeatherCatV1.15B25,2013-09-18 17:01:00,
2013-09-18 13:06:00,73.4,44.1,30.25,West,277,3.0,3.0,35,0.00,,,0.00,WeatherCatV1.15B25,2013-09-18 17:06:00,
2013-09-18 13:11:00,73.4,42.5,30.25,SSE,156,0.0,4.0,33,0.00,,,0.00,WeatherCatV1.15B25,2013-09-18 17:11:00,
2013-09-18 13:16:00,73.5,42.6,30.24,NNW,330,1.0,3.0,33,0.00,,,0.00,WeatherCatV1.15B25,2013-09-18 17:16:00,
2013-09-18 13:21:00,73.9,42.2,30.24,SW,218,4.0,5.0,32,0.00,,,0.00,WeatherCatV1.15B25,2013-09-18 17:21:00,
2013-09-18 13:26:00,74.1,43.1,30.24,NW,326,1.0,1.0,33,0.00,,,0.00,WeatherCatV1.15B25,2013-09-18 17:26:00,
2013-09-18 13:31:00,75.2,45.7,30.23,SSE,164,0.0,2.0,35,0.00,,,0.00,WeatherCatV1.15B25,2013-09-18 17:31:00,
2013-09-18 13:36:00,76.1,43.2,30.23,SW,221,2.0,2.0,31,0.00,,,0.00,WeatherCatV1.15B25,2013-09-18 17:36:00,
2013-09-18 13:41:00,76.0,44.8,30.23,South,181,0.0,2.0,33,0.00,,,0.00,WeatherCatV1.15B25,2013-09-18 17:41:00,
2013-09-18 13:46:00,75.8,43.8,30.23,ESE,120,0.0,3.0,32,0.00,,,0.00,WeatherCatV1.15B25,2013-09-18 17:46:00,
2013-09-18 13:51:00,75.6,42.0,30.23,WSW,252,0.0,3.0,30,0.00,,,0.00,WeatherCatV1.15B25,2013-09-18 17:51:00,
2013-09-18 13:56:00,75.4,43.5,30.23,SSW,198,0.0,4.0,32,0.00,,,0.00,WeatherCatV1.15B25,2013-09-18 17:56:00,
2013-09-18 14:01:00,75.0,43.9,30.22,WSW,240,0.0,3.0,33,0.00,,,0.00,WeatherCatV1.15B25,2013-09-18 18:01:00,
2013-09-18 14:06:00,75.3,43.4,30.22,SSW,200,0.0,4.0,32,0.00,,,0.00,WeatherCatV1.15B25,2013-09-18 18:06:00,
2013-09-18 14:11:00,75.4,44.3,30.22,NE,39,0.0,2.0,33,0.00,,,0.00,WeatherCatV1.15B25,2013-09-18 18:11:00,
2013-09-18 14:16:00,75.5,42.7,30.22,SSW,203,0.0,4.0,31,0.00,,,0.00,WeatherCatV1.15B25,2013-09-18 18:16:00,
2013-09-18 14:21:00,75.3,42.6,30.22,SSE,153,3.0,4.0,31,0.00,,,0.00,WeatherCatV1.15B25,2013-09-18 18:21:00,
2013-09-18 14:26:00,75.1,43.2,30.21,SW,218,2.0,2.0,32,0.00,,,0.00,WeatherCatV1.15B25,2013-09-18 18:26:00,
2013-09-18 14:31:00,75.4,43.5,30.21,SSW,203,0.0,4.0,32,0.00,,,0.00,WeatherCatV1.15B25,2013-09-18 18:31:00,
2013-09-18 14:36:00,75.7,45.3,30.21,SW,226,3.0,3.0,34,0.00,,,0.00,WeatherCatV1.15B25,2013-09-18 18:36:00,
2013-09-18 14:41:00,75.8,43.8,30.21,SE,146,0.0,4.0,32,0.00,,,0.00,WeatherCatV1.15B25,2013-09-18 18:41:00,
2013-09-18 14:46:00,75.5,42.7,30.20,SW,214,0.0,4.0,31,0.00,,,0.00,WeatherCatV1.15B25,2013-09-18 18:46:00,
2013-09-18 14:51:00,75.6,44.5,30.20,SSW,195,0.0,5.0,33,0.00,,,0.00,WeatherCatV1.15B25,2013-09-18 18:51:00,
2013-09-18 14:56:00,76.3,44.3,30.20,SSE,154,0.0,0.0,32,0.00,,,0.00,WeatherCatV1.15B25,2013-09-18 18:56:00,
2013-09-18 15:01:00,76.3,44.3,30.19,ESE,110,1.0,2.0,32,0.00,,,0.00,WeatherCatV1.15B25,2013-09-18 19:01:00,
2013-09-18 15:06:00,75.9,44.7,30.19,SSW,211,0.0,3.0,33,0.00,,,0.00,WeatherCatV1.15B25,2013-09-18 19:06:00,
2013-09-18 15:11:00,76.1,44.9,30.19,ENE,77,2.0,4.0,33,0.00,,,0.00,WeatherCatV1.15B25,2013-09-18 19:11:00,
2013-09-18 15:16:00,76.0,44.0,30.19,ESE,123,0.0,3.0,32,0.00,,,0.00,WeatherCatV1.15B25,2013-09-18 19:16:00,
2013-09-18 15:21:00,76.2,45.8,30.19,SSE,164,2.0,3.0,34,0.00,,,0.00,WeatherCatV1.15B25,2013-09-18 19:21:00,
2013-09-18 15:26:00,76.0,44.8,30.19,SW,217,1.0,3.0,33,0.00,,,0.00,WeatherCatV1.15B25,2013-09-18 19:26:00,
2013-09-18 15:31:00,75.7,43.7,30.19,SSE,164,1.0,5.0,32,0.00,,,0.00,WeatherCatV1.15B25,2013-09-18 19:31:00,
2013-09-18 15:36:00,75.3,44.2,30.18,North,354,1.0,2.0,33,0.00,,,0.00,WeatherCatV1.15B25,2013-09-18 19:36:00,
2013-09-18 15:41:00,75.2,44.9,30.18,WNW,300,0.0,1.0,34,0.00,,,0.00,WeatherCatV1.15B25,2013-09-18 19:41:00,
2013-09-18 15:46:00,75.1,44.8,30.18,NNW,347,1.0,1.0,34,0.00,,,0.00,WeatherCatV1.15B25,2013-09-18 19:46:00,
2013-09-18 15:51:00,74.7,44.4,30.18,East,94,0.0,2.0,34,0.00,,,0.00,WeatherCatV1.15B25,2013-09-18 19:51:00,
2013-09-18 15:56:00,74.5,45.0,30.18,SSW,210,0.0,6.0,35,0.00,,,0.00,WeatherCatV1.15B25,2013-09-18 19:56:00,
2013-09-18 16:01:00,74.2,44.8,30.18,SW,228,0.0,2.0,35,0.00,,,0.00,WeatherCatV1.15B25,2013-09-18 20:01:00,
2013-09-18 16:07:00,73.9,44.5,30.18,West,277,0.0,1.0,35,0.00,,,0.00,WeatherCatV1.15B25,2013-09-18 20:07:00,
2013-09-18 16:12:00,73.6,41.9,30.18,WSW,240,4.0,6.0,32,0.00,,,0.00,WeatherCatV1.15B25,2013-09-18 20:12:00,
2013-09-18 16:17:00,73.4,41.7,30.18,South,174,0.0,2.0,32,0.00,,,0.00,WeatherCatV1.15B25,2013-09-18 20:17:00,
2013-09-18 16:22:00,73.2,43.1,30.17,West,262,1.0,4.0,34,0.00,,,0.00,WeatherCatV1.15B25,2013-09-18 20:22:00,
2013-09-18 16:27:00,73.1,43.0,30.17,NW,316,0.0,0.0,34,0.00,,,0.00,WeatherCatV1.15B25,2013-09-18 20:27:00,
2013-09-18 16:32:00,73.0,43.0,30.17,SSW,212,1.0,1.0,34,0.00,,,0.00,WeatherCatV1.15B25,2013-09-18 20:32:00,
2013-09-18 16:37:00,72.9,42.9,30.17,ENE,75,0.0,1.0,34,0.00,,,0.00,WeatherCatV1.15B25,2013-09-18 20:37:00,
2013-09-18 16:42:00,72.8,44.3,30.17,SSW,210,0.0,3.0,36,0.00,,,0.00,WeatherCatV1.15B25,2013-09-18 20:42:00,
2013-09-18 16:47:00,72.8,45.0,30.17,WSW,238,0.0,0.0,37,0.00,,,0.00,WeatherCatV1.15B25,2013-09-18 20:47:00,
2013-09-18 16:52:00,72.6,44.1,30.17,SSW,212,0.0,2.0,36,0.00,,,0.00,WeatherCatV1.15B25,2013-09-18 20:52:00,
2013-09-18 16:57:00,72.6,44.1,30.17,SSW,210,1.0,1.0,36,0.00,,,0.00,WeatherCatV1.15B25,2013-09-18 20:57:00,
2013-09-18 17:02:00,72.5,44.7,30.17,SW,214,3.0,3.0,37,0.00,,,0.00,WeatherCatV1.15B25,2013-09-18 21:02:00,
2013-09-18 17:07:00,72.4,44.6,30.17,East,91,0.0,2.0,37,0.00,,,0.00,WeatherCatV1.15B25,2013-09-18 21:07:00,
2013-09-18 17:12:00,72.2,44.5,30.17,NNE,19,0.0,3.0,37,0.00,,,0.00,WeatherCatV1.15B25,2013-09-18 21:12:00,
2013-09-18 17:17:00,72.0,44.3,30.17,East,101,0.0,1.0,37,0.00,,,0.00,WeatherCatV1.15B25,2013-09-18 21:17:00,
2013-09-18 17:22:00,71.8,44.8,30.17,SW,229,0.0,1.0,38,0.00,,,0.00,WeatherCatV1.15B25,2013-09-18 21:22:00,
2013-09-18 17:27:00,71.6,45.3,30.17,SE,133,1.0,1.0,39,0.00,,,0.00,WeatherCatV1.15B25,2013-09-18 21:27:00,
2013-09-18 17:32:00,71.4,44.5,30.17,SSW,213,1.0,3.0,38,0.00,,,0.00,WeatherCatV1.15B25,2013-09-18 21:32:00,
2013-09-18 17:37:00,71.2,45.0,30.17,NE,46,0.0,3.0,39,0.00,,,0.00,WeatherCatV1.15B25,2013-09-18 21:37:00,
2013-09-18 17:42:00,71.0,44.8,30.17,NNE,16,0.0,3.0,39,0.00,,,0.00,WeatherCatV1.15B25,2013-09-18 21:42:00,
2013-09-18 17:47:00,70.7,45.2,30.16,NE,47,1.0,1.0,40,0.00,,,0.00,WeatherCatV1.15B25,2013-09-18 21:47:00,
2013-09-18 17:52:00,70.4,46.2,30.16,NE,49,0.0,0.0,42,0.00,,,0.00,WeatherCatV1.15B25,2013-09-18 21:52:00,
2013-09-18 17:57:00,69.8,44.4,30.16,ESE,119,0.0,1.0,40,0.00,,,0.00,WeatherCatV1.15B25,2013-09-18 21:57:00,
2013-09-18 18:02:00,69.7,44.3,30.17,SW,216,1.0,1.0,40,0.00,,,0.00,WeatherCatV1.15B25,2013-09-18 22:02:00,
2013-09-18 18:07:00,69.5,44.8,30.16,SE,124,0.0,1.0,41,0.00,,,0.00,WeatherCatV1.15B25,2013-09-18 22:07:00,
2013-09-18 18:12:00,69.4,44.0,30.16,South,177,0.0,1.0,40,0.00,,,0.00,WeatherCatV1.15B25,2013-09-18 22:12:00,
2013-09-18 18:17:00,69.1,43.8,30.16,NW,307,0.0,0.0,40,0.00,,,0.00,WeatherCatV1.15B25,2013-09-18 22:17:00,
2013-09-18 18:22:00,68.8,44.1,30.16,North,354,0.0,0.0,41,0.00,,,0.00,WeatherCatV1.15B25,2013-09-18 22:22:00,
2013-09-18 18:27:00,68.3,44.3,30.16,North,356,0.0,1.0,42,0.00,,,0.00,WeatherCatV1.15B25,2013-09-18 22:27:00,
2013-09-18 18:32:00,67.8,44.5,30.16,ENE,75,0.0,0.0,43,0.00,,,0.00,WeatherCatV1.15B25,2013-09-18 22:32:00,
2013-09-18 18:37:00,67.3,44.6,30.16,ENE,75,0.0,0.0,44,0.00,,,0.00,WeatherCatV1.15B25,2013-09-18 22:37:00,
2013-09-18 18:42:00,66.7,44.7,30.16,ENE,75,0.0,0.0,45,0.00,,,0.00,WeatherCatV1.15B25,2013-09-18 22:42:00,
2013-09-18 18:47:00,66.2,44.8,30.16,ENE,75,0.0,0.0,46,0.00,,,0.00,WeatherCatV1.15B25,2013-09-18 22:47:00,
2013-09-18 18:52:00,65.7,44.9,30.16,ENE,75,0.0,0.0,47,0.00,,,0.00,WeatherCatV1.15B25,2013-09-18 22:52:00,
2013-09-18 18:58:00,65.2,45.6,30.16,ENE,75,0.0,0.0,49,0.00,,,0.00,WeatherCatV1.15B25,2013-09-18 22:58:00,
2013-09-18 19:03:00,64.7,46.1,30.16,ENE,75,0.0,0.0,51,0.00,,,0.00,WeatherCatV1.15B25,2013-09-18 23:03:00,
2013-09-18 19:08:00,64.2,45.7,30.16,ENE,75,0.0,0.0,51,0.00,,,0.00,WeatherCatV1.15B25,2013-09-18 23:08:00,
2013-09-18 19:13:00,63.7,45.7,30.16,ENE,75,0.0,0.0,52,0.00,,,0.00,WeatherCatV1.15B25,2013-09-18 23:13:00,
2013-09-18 19:17:00,63.2,45.8,30.16,ENE,75,0.0,0.0,53,0.00,,,0.00,WeatherCatV1.15B25,2013-09-18 23:17:00,
2013-09-18 19:23:00,62.8,45.9,30.16,ENE,75,0.0,0.0,54,0.00,,,0.00,WeatherCatV1.15B25,2013-09-18 23:23:00,
2013-09-18 19:28:00,62.3,45.9,30.17,ENE,75,0.0,0.0,55,0.00,,,0.00,WeatherCatV1.15B25,2013-09-18 23:28:00,
2013-09-18 19:33:00,61.8,46.4,30.17,ENE,75,0.0,0.0,57,0.00,,,0.00,WeatherCatV1.15B25,2013-09-18 23:33:00,
2013-09-18 19:38:00,61.4,46.0,30.16,ENE,75,0.0,0.0,57,0.00,,,0.00,WeatherCatV1.15B25,2013-09-18 23:38:00,
2013-09-18 19:43:00,61.1,46.2,30.17,ENE,75,0.0,0.0,58,0.00,,,0.00,WeatherCatV1.15B25,2013-09-18 23:43:00,
2013-09-18 19:48:00,60.7,46.3,30.17,ENE,75,0.0,0.0,59,0.00,,,0.00,WeatherCatV1.15B25,2013-09-18 23:48:00,
2013-09-18 19:53:00,60.4,46.4,30.17,ENE,75,0.0,0.0,60,0.00,,,0.00,WeatherCatV1.15B25,2013-09-18 23:53:00,
2013-09-18 19:58:00,60.1,46.2,30.17,ENE,75,0.0,0.0,60,0.00,,,0.00,WeatherCatV1.15B25,2013-09-18 23:58:00,
2013-09-18 20:03:00,59.9,46.4,30.17,ENE,75,0.0,0.0,61,0.00,,,0.00,WeatherCatV1.15B25,2013-09-19 00:03:00,
2013-09-18 20:08:00,59.6,46.6,30.17,ENE,75,0.0,0.0,62,0.00,,,0.00,WeatherCatV1.15B25,2013-09-19 00:08:00,
2013-09-18 20:13:00,59.3,46.3,30.17,ENE,75,0.0,0.0,62,0.00,,,0.00,WeatherCatV1.15B25,2013-09-19 00:13:00,
2013-09-18 20:18:00,59.0,46.0,30.17,ENE,75,0.0,0.0,62,0.00,,,0.00,WeatherCatV1.15B25,2013-09-19 00:18:00,
2013-09-18 20:23:00,58.6,46.5,30.17,ENE,75,0.0,0.0,64,0.00,,,0.00,WeatherCatV1.15B25,2013-09-19 00:23:00,
2013-09-18 20:28:00,58.3,46.2,30.17,ENE,75,0.0,0.0,64,0.00,,,0.00,WeatherCatV1.15B25,2013-09-19 00:28:00,
2013-09-18 20:33:00,58.1,46.8,30.17,ENE,75,0.0,0.0,66,0.00,,,0.00,WeatherCatV1.15B25,2013-09-19 00:33:00,
2013-09-18 20:38:00,57.8,46.9,30.17,ENE,75,0.0,0.0,67,0.00,,,0.00,WeatherCatV1.15B25,2013-09-19 00:38:00,
2013-09-18 20:43:00,57.6,47.1,30.17,ENE,75,0.0,0.0,68,0.00,,,0.00,WeatherCatV1.15B25,2013-09-19 00:43:00,
2013-09-18 20:48:00,57.4,47.3,30.17,ENE,75,0.0,0.0,69,0.00,,,0.00,WeatherCatV1.15B25,2013-09-19 00:48:00,
2013-09-18 20:53:00,57.2,47.5,30.17,ENE,75,0.0,0.0,70,0.00,,,0.00,WeatherCatV1.15B25,2013-09-19 00:53:00,
2013-09-18 20:58:00,57.1,47.4,30.17,ENE,75,0.0,0.0,70,0.00,,,0.00,WeatherCatV1.15B25,2013-09-19 00:58:00,
2013-09-18 21:03:00,56.8,47.5,30.17,ENE,75,0.0,0.0,71,0.00,,,0.00,WeatherCatV1.15B25,2013-09-19 01:03:00,
2013-09-18 21:08:00,56.7,47.4,30.16,ENE,75,0.0,0.0,71,0.00,,,0.00,WeatherCatV1.15B25,2013-09-19 01:08:00,
2013-09-18 21:13:00,56.4,47.5,30.17,ENE,75,0.0,0.0,72,0.00,,,0.00,WeatherCatV1.15B25,2013-09-19 01:13:00,
2013-09-18 21:18:00,56.2,47.3,30.17,ENE,75,0.0,0.0,72,0.00,,,0.00,WeatherCatV1.15B25,2013-09-19 01:18:00,
2013-09-18 21:23:00,56.0,47.5,30.16,ENE,75,0.0,0.0,73,0.00,,,0.00,WeatherCatV1.15B25,2013-09-19 01:23:00,
2013-09-18 21:28:00,55.8,47.6,30.17,ENE,75,0.0,0.0,74,0.00,,,0.00,WeatherCatV1.15B25,2013-09-19 01:28:00,
2013-09-18 21:33:00,55.7,47.9,30.17,ENE,77,0.0,0.0,75,0.00,,,0.00,WeatherCatV1.15B25,2013-09-19 01:33:00,
2013-09-18 21:38:00,55.5,48.1,30.17,ENE,76,0.0,0.0,76,0.00,,,0.00,WeatherCatV1.15B25,2013-09-19 01:38:00,
2013-09-18 21:43:00,55.4,48.0,30.17,ENE,77,0.0,0.0,76,0.00,,,0.00,WeatherCatV1.15B25,2013-09-19 01:43:00,
2013-09-18 21:48:00,55.3,48.2,30.17,ENE,77,0.0,0.0,77,0.00,,,0.00,WeatherCatV1.15B25,2013-09-19 01:48:00,
2013-09-18 21:53:00,55.1,48.0,30.17,ENE,76,0.0,1.0,77,0.00,,,0.00,WeatherCatV1.15B25,2013-09-19 01:53:00,
2013-09-18 21:58:00,55.1,48.0,30.17,ENE,77,0.0,0.0,77,0.00,,,0.00,WeatherCatV1.15B25,2013-09-19 01:58:00,
2013-09-18 22:03:00,55.1,48.0,30.17,ENE,75,0.0,0.0,77,0.00,,,0.00,WeatherCatV1.15B25,2013-09-19 02:03:00,
2013-09-18 22:08:00,55.1,48.0,30.17,ENE,75,0.0,0.0,77,0.00,,,0.00,WeatherCatV1.15B25,2013-09-19 02:08:00,
2013-09-18 22:13:00,55.1,48.0,30.17,ENE,77,0.0,0.0,77,0.00,,,0.00,WeatherCatV1.15B25,2013-09-19 02:13:00,
2013-09-18 22:18:00,55.1,48.0,30.17,ENE,76,0.0,0.0,77,0.00,,,0.00,WeatherCatV1.15B25,2013-09-19 02:18:00,
2013-09-18 22:23:00,55.0,47.9,30.17,ENE,77,0.0,0.0,77,0.00,,,0.00,WeatherCatV1.15B25,2013-09-19 02:23:00,
2013-09-18 22:28:00,54.9,47.8,30.17,ENE,77,0.0,0.0,77,0.00,,,0.00,WeatherCatV1.15B25,2013-09-19 02:28:00,
2013-09-18 22:33:00,54.8,48.1,30.17,ENE,77,0.0,0.0,78,0.00,,,0.00,WeatherCatV1.15B25,2013-09-19 02:33:00,
2013-09-18 22:38:00,54.8,48.1,30.17,ENE,75,0.0,0.0,78,0.00,,,0.00,WeatherCatV1.15B25,2013-09-19 02:38:00,
2013-09-18 22:43:00,54.7,48.0,30.17,ENE,77,0.0,0.0,78,0.00,,,0.00,WeatherCatV1.15B25,2013-09-19 02:43:00,
2013-09-18 22:48:00,54.7,48.0,30.17,ENE,75,0.0,0.0,78,0.00,,,0.00,WeatherCatV1.15B25,2013-09-19 02:48:00,
2013-09-18 22:53:00,54.6,47.9,30.17,ENE,76,0.0,0.0,78,0.00,,,0.00,WeatherCatV1.15B25,2013-09-19 02:53:00,
2013-09-18 22:58:00,54.5,48.1,30.17,ENE,77,0.0,0.0,79,0.00,,,0.00,WeatherCatV1.15B25,2013-09-19 02:58:00,
2013-09-18 23:03:00,54.4,48.4,30.17,ENE,77,0.0,0.0,80,0.00,,,0.00,WeatherCatV1.15B25,2013-09-19 03:03:00,
2013-09-18 23:08:00,54.3,48.3,30.17,ENE,76,0.0,0.0,80,0.00,,,0.00,WeatherCatV1.15B25,2013-09-19 03:08:00,
2013-09-18 23:13:00,54.2,48.5,30.17,ENE,76,0.0,0.0,81,0.00,,,0.00,WeatherCatV1.15B25,2013-09-19 03:13:00,
2013-09-18 23:18:00,54.1,48.4,30.17,ENE,75,0.0,0.0,81,0.00,,,0.00,WeatherCatV1.15B25,2013-09-19 03:18:00,
2013-09-18 23:23:00,54.1,48.7,30.17,ENE,77,0.0,0.0,82,0.00,,,0.00,WeatherCatV1.15B25,2013-09-19 03:23:00,
2013-09-18 23:28:00,53.9,48.5,30.16,ENE,77,0.0,0.0,82,0.00,,,0.00,WeatherCatV1.15B25,2013-09-19 03:28:00,
2013-09-18 23:33:00,53.8,48.4,30.17,ENE,75,0.0,0.0,82,0.00,,,0.00,WeatherCatV1.15B25,2013-09-19 03:33:00,
2013-09-18 23:38:00,53.6,48.6,30.17,ENE,75,0.0,0.0,83,0.00,,,0.00,WeatherCatV1.15B25,2013-09-19 03:38:00,
2013-09-18 23:43:00,53.4,48.7,30.16,ENE,77,0.0,0.0,84,0.00,,,0.00,WeatherCatV1.15B25,2013-09-19 03:43:00,
2013-09-18 23:48:00,53.2,48.5,30.16,ENE,77,0.0,0.0,84,0.00,,,0.00,WeatherCatV1.15B25,2013-09-19 03:48:00,
2013-09-18 23:53:00,52.9,48.2,30.16,ENE,76,0.0,0.0,84,0.00,,,0.00,WeatherCatV1.15B25,2013-09-19 03:53:00,
2013-09-18 23:59:00,52.8,48.4,30.16,ENE,77,0.0,0.0,85,0.00,,,0.00,WeatherCatV1.15B25,2013-09-19 03:59:00,